Time;durP1;ratioP1;P1;durP2;ratioP2;P2;SDS_P1;SDS_P2;PMS_P1;PMS_P2;Temp;Humidity;BMP_temperature;BMP_pressure;BME280_temperature;BME280_humidity;BME280_pressure;Samples;Min_cycle;Max_cycle;Signal;HPM_P1;HPM_P2
2023/09/01 00:01:25;;;;;;;6.15;2.75;;;;;;;;;;5054970;28;20044;-62
2023/09/01 00:03:51;;;;;;;6.10;3.45;;;;;;;;;;5067586;28;20175;-62
2023/09/01 00:06:18;;;;;;;6.28;2.65;;;;;;;;;;5054081;28;20132;-61
2023/09/01 00:08:44;;;;;;;5.43;2.22;;;;;;;;;;5069192;28;20057;-62
2023/09/01 00:11:11;;;;;;;3.67;2.42;;;;;;;;;;5062833;28;20041;-61
2023/09/01 00:13:39;;;;;;;3.97;2.40;;;;;;;;;;5068453;28;20139;-62
2023/09/01 00:16:05;;;;;;;8.07;2.60;;;;;;;;;;5069344;28;20048;-62
2023/09/01 00:18:32;;;;;;;9.13;2.83;;;;;;;;;;5069923;28;20099;-63
2023/09/01 00:20:59;;;;;;;4.47;2.85;;;;;;;;;;5071891;28;20047;-61
2023/09/01 00:23:25;;;;;;;4.68;2.85;;;;;;;;;;5072331;28;20052;-64
2023/09/01 00:25:58;;;;;;;11.10;3.45;;;;;;;;;;5058366;28;20074;-62
2023/09/01 00:28:24;;;;;;;6.35;3.00;;;;;;;;;;5072145;28;20051;-62
2023/09/01 00:30:55;;;;;;;6.28;2.85;;;;;;;;;;5070424;28;20094;-62
2023/09/01 00:33:21;;;;;;;7.15;2.80;;;;;;;;;;5037324;28;20051;-62
2023/09/01 00:35:50;;;;;;;6.25;3.38;;;;;;;;;;5071617;28;20048;-62
2023/09/01 00:38:16;;;;;;;7.18;2.70;;;;;;;;;;5063616;28;20493;-62
2023/09/01 00:40:42;;;;;;;3.95;2.42;;;;;;;;;;5052797;28;20511;-62
2023/09/01 00:43:08;;;;;;;5.03;2.40;;;;;;;;;;5070898;28;20050;-62
2023/09/01 00:45:37;;;;;;;10.88;3.40;;;;;;;;;;5069831;28;20405;-61
2023/09/01 00:48:04;;;;;;;7.95;3.03;;;;;;;;;;5053982;28;20087;-63
2023/09/01 00:50:30;;;;;;;5.82;3.17;;;;;;;;;;5054054;28;20439;-61
2023/09/01 00:52:56;;;;;;;4.45;2.88;;;;;;;;;;5062159;28;20045;-62
2023/09/01 00:55:22;;;;;;;6.05;3.47;;;;;;;;;;5037784;28;20060;-62
2023/09/01 00:57:48;;;;;;;7.28;3.15;;;;;;;;;;5069580;28;20039;-61
2023/09/01 01:00:18;;;;;;;5.65;2.85;;;;;;;;;;5029530;28;20045;-60
2023/09/01 01:02:45;;;;;;;6.47;3.80;;;;;;;;;;5048584;28;20049;-61
2023/09/01 01:05:15;;;;;;;6.60;3.60;;;;;;;;;;5035981;28;20048;-60
2023/09/01 01:08:00;;;;;;;4.28;3.10;;;;;;;;;;5053175;28;20064;-61
2023/09/01 01:10:52;;;;;;;8.85;3.15;;;;;;;;;;5052457;28;20401;-60
2023/09/01 01:13:20;;;;;;;6.60;3.10;;;;;;;;;;5059886;28;20113;-61
2023/09/01 01:15:47;;;;;;;7.45;3.65;;;;;;;;;;5069662;28;20044;-61
2023/09/01 01:18:14;;;;;;;4.05;2.92;;;;;;;;;;5070224;28;20049;-61
2023/09/01 01:20:52;;;;;;;6.38;3.05;;;;;;;;;;5046813;28;20076;-61
2023/09/01 01:23:19;;;;;;;7.70;3.33;;;;;;;;;;5062051;28;20048;-61
2023/09/01 01:25:52;;;;;;;8.25;3.42;;;;;;;;;;5052564;28;20049;-62
2023/09/01 01:28:19;;;;;;;9.43;3.42;;;;;;;;;;5068761;28;20469;-61
2023/09/01 01:30:47;;;;;;;5.68;3.55;;;;;;;;;;5064990;28;20044;-61
2023/09/01 01:33:16;;;;;;;6.55;3.60;;;;;;;;;;5051784;28;20048;-61
2023/09/01 01:35:49;;;;;;;6.65;3.22;;;;;;;;;;5070751;28;20048;-61
2023/09/01 01:38:17;;;;;;;5.53;3.38;;;;;;;;;;5069251;28;20040;-61
2023/09/01 01:40:46;;;;;;;7.88;3.63;;;;;;;;;;5050178;28;20097;-61
2023/09/01 01:43:13;;;;;;;5.15;3.20;;;;;;;;;;5067350;28;20186;-61
2023/09/01 01:45:41;;;;;;;5.05;3.00;;;;;;;;;;5052169;28;20059;-61
2023/09/01 01:48:07;;;;;;;6.82;3.80;;;;;;;;;;5069583;28;20044;-61
2023/09/01 01:50:33;;;;;;;6.35;3.55;;;;;;;;;;5060025;28;20052;-61
2023/09/01 01:53:00;;;;;;;10.98;4.00;;;;;;;;;;5056589;28;20037;-61
2023/09/01 01:55:26;;;;;;;5.88;3.80;;;;;;;;;;5051952;28;20052;-61
2023/09/01 01:57:52;;;;;;;6.07;3.13;;;;;;;;;;5070095;28;20048;-61
2023/09/01 02:00:19;;;;;;;7.15;3.60;;;;;;;;;;5051237;28;20044;-61
2023/09/01 02:02:45;;;;;;;4.90;3.28;;;;;;;;;;5069981;28;20512;-61
2023/09/01 02:05:11;;;;;;;8.25;4.95;;;;;;;;;;5040441;28;20036;-61
2023/09/01 02:07:37;;;;;;;8.27;3.85;;;;;;;;;;5069474;28;20044;-61
2023/09/01 02:10:05;;;;;;;7.45;3.78;;;;;;;;;;5069508;28;20139;-62
2023/09/01 02:12:34;;;;;;;6.70;3.85;;;;;;;;;;5067485;28;20048;-61
2023/09/01 02:15:01;;;;;;;7.72;4.45;;;;;;;;;;5051371;28;20060;-62
2023/09/01 02:17:27;;;;;;;11.23;3.78;;;;;;;;;;5069730;28;20045;-61
2023/09/01 02:19:53;;;;;;;8.55;3.95;;;;;;;;;;5070144;28;20086;-61
2023/09/01 02:22:19;;;;;;;7.82;4.20;;;;;;;;;;5069543;28;20127;-61
2023/09/01 02:24:45;;;;;;;7.15;4.32;;;;;;;;;;5069441;28;20118;-61
2023/09/01 02:27:11;;;;;;;7.68;3.88;;;;;;;;;;5069642;28;20052;-61
2023/09/01 02:29:37;;;;;;;6.35;3.67;;;;;;;;;;5051248;28;20080;-61
2023/09/01 02:32:04;;;;;;;9.90;4.13;;;;;;;;;;5050998;28;20071;-62
2023/09/01 02:34:30;;;;;;;8.55;3.67;;;;;;;;;;5070321;28;20119;-60
2023/09/01 02:36:56;;;;;;;5.22;3.35;;;;;;;;;;5046561;28;20090;-62
2023/09/01 02:39:23;;;;;;;6.05;3.72;;;;;;;;;;5051335;28;20055;-61
2023/09/01 02:41:49;;;;;;;7.57;3.53;;;;;;;;;;5069325;28;20049;-62
2023/09/01 02:44:15;;;;;;;6.93;3.58;;;;;;;;;;5045595;28;20047;-62
2023/09/01 02:46:41;;;;;;;5.60;3.75;;;;;;;;;;5051800;28;20135;-63
2023/09/01 02:49:07;;;;;;;5.82;3.75;;;;;;;;;;5050371;28;20539;-61
2023/09/01 02:51:33;;;;;;;6.95;3.50;;;;;;;;;;5049471;28;20484;-61
2023/09/01 02:53:59;;;;;;;6.32;3.03;;;;;;;;;;5068945;28;20500;-62
2023/09/01 02:56:25;;;;;;;6.10;3.17;;;;;;;;;;5068845;28;20048;-61
2023/09/01 02:58:51;;;;;;;5.57;3.10;;;;;;;;;;5068856;28;20101;-62
2023/09/01 03:01:18;;;;;;;5.80;3.05;;;;;;;;;;5051462;28;20074;-61
2023/09/01 03:03:44;;;;;;;5.03;3.10;;;;;;;;;;5070435;28;20049;-61
2023/09/01 03:06:11;;;;;;;5.85;3.25;;;;;;;;;;5071129;28;20056;-62
2023/09/01 03:08:39;;;;;;;7.03;3.60;;;;;;;;;;5054419;28;20053;-64
2023/09/01 03:11:06;;;;;;;5.57;3.60;;;;;;;;;;5053075;28;20044;-62
2023/09/01 03:13:32;;;;;;;5.28;3.90;;;;;;;;;;5034309;28;20475;-61
2023/09/01 03:15:58;;;;;;;6.70;3.50;;;;;;;;;;5041700;28;20133;-62
2023/09/01 03:18:24;;;;;;;8.15;3.80;;;;;;;;;;5071176;28;20048;-61
2023/09/01 03:20:55;;;;;;;8.45;3.75;;;;;;;;;;5054690;28;20763;-61
2023/09/01 03:23:22;;;;;;;4.70;2.88;;;;;;;;;;5038527;28;20397;-61
2023/09/01 03:25:55;;;;;;;8.82;3.53;;;;;;;;;;5055618;28;20036;-62
2023/09/01 03:28:21;;;;;;;10.38;3.50;;;;;;;;;;5070750;28;20055;-62
2023/09/01 03:30:47;;;;;;;4.15;3.20;;;;;;;;;;5041462;28;20143;-61
2023/09/01 03:33:13;;;;;;;6.00;3.70;;;;;;;;;;5037011;28;20080;-62
2023/09/01 03:35:39;;;;;;;12.85;4.03;;;;;;;;;;5050794;28;20064;-61
2023/09/01 03:38:05;;;;;;;7.55;3.50;;;;;;;;;;5072330;28;20036;-61
2023/09/01 03:40:32;;;;;;;5.65;4.00;;;;;;;;;;5053102;28;20103;-62
2023/09/01 03:42:58;;;;;;;7.10;4.40;;;;;;;;;;5037611;28;20048;-62
2023/09/01 03:45:24;;;;;;;6.57;3.55;;;;;;;;;;5034536;28;20040;-62
2023/09/01 03:47:50;;;;;;;8.10;4.18;;;;;;;;;;5023788;28;20154;-62
2023/09/01 03:50:16;;;;;;;7.93;4.10;;;;;;;;;;5068452;28;20408;-62
2023/09/01 03:52:42;;;;;;;9.63;4.45;;;;;;;;;;5072255;28;20381;-62
2023/09/01 03:55:09;;;;;;;9.70;4.18;;;;;;;;;;5038458;28;20048;-62
2023/09/01 03:57:35;;;;;;;9.02;4.20;;;;;;;;;;5053873;28;20079;-62
2023/09/01 04:00:11;;;;;;;8.25;4.22;;;;;;;;;;5070912;28;20048;-62
2023/09/01 04:02:37;;;;;;;6.30;4.25;;;;;;;;;;5053140;28;20407;-62
2023/09/01 04:05:04;;;;;;;8.75;3.95;;;;;;;;;;5066231;28;20041;-63
2023/09/01 04:07:30;;;;;;;7.80;3.55;;;;;;;;;;5069700;28;20385;-62
2023/09/01 04:09:58;;;;;;;9.30;3.72;;;;;;;;;;5072591;28;20041;-61
2023/09/01 04:12:24;;;;;;;6.63;3.90;;;;;;;;;;5055051;28;20047;-61
2023/09/01 04:14:50;;;;;;;7.82;3.83;;;;;;;;;;5033904;28;20097;-61
2023/09/01 04:17:16;;;;;;;7.05;3.65;;;;;;;;;;5037484;28;20048;-62
2023/09/01 04:19:47;;;;;;;6.15;3.60;;;;;;;;;;5054004;28;20037;-62
2023/09/01 04:22:13;;;;;;;7.45;3.72;;;;;;;;;;5052201;28;20055;-62
2023/09/01 04:24:39;;;;;;;13.57;5.68;;;;;;;;;;5037412;28;20044;-61
2023/09/01 04:27:05;;;;;;;12.95;6.13;;;;;;;;;;5038446;28;20139;-61
2023/09/01 04:29:31;;;;;;;12.60;6.85;;;;;;;;;;5070984;28;20060;-61
2023/09/01 04:31:57;;;;;;;25.98;10.45;;;;;;;;;;5071216;28;20068;-62
2023/09/01 04:34:24;;;;;;;30.02;13.90;;;;;;;;;;5033950;28;20052;-61
2023/09/01 04:36:50;;;;;;;22.02;9.90;;;;;;;;;;5069182;28;20127;-61
2023/09/01 04:39:17;;;;;;;23.77;10.13;;;;;;;;;;5067664;28;20053;-62
2023/09/01 04:41:43;;;;;;;10.93;5.72;;;;;;;;;;5073112;28;20051;-61
2023/09/01 04:44:13;;;;;;;10.10;4.75;;;;;;;;;;5052202;28;20062;-61
2023/09/01 04:46:39;;;;;;;;;;;;;;;;;;5060776;28;20477;-62
2023/09/01 04:49:05;;;;;;;8.15;5.40;;;;;;;;;;5067814;28;19963;-63
2023/09/01 04:51:31;;;;;;;6.57;3.50;;;;;;;;;;5072006;28;20075;-61
2023/09/01 04:53:57;;;;;;;6.47;3.90;;;;;;;;;;5072311;28;20040;-61
2023/09/01 04:56:23;;;;;;;10.43;4.35;;;;;;;;;;5053259;28;20044;-61
2023/09/01 04:58:49;;;;;;;7.50;3.60;;;;;;;;;;5068587;28;20135;-61
2023/09/01 05:01:15;;;;;;;7.68;3.83;;;;;;;;;;5051638;28;20131;-61
2023/09/01 05:03:42;;;;;;;9.48;3.85;;;;;;;;;;5053846;28;20203;-61
2023/09/01 05:06:10;;;;;;;7.57;3.92;;;;;;;;;;5070505;28;20056;-61
2023/09/01 05:08:36;;;;;;;7.25;4.60;;;;;;;;;;5072098;28;20079;-61
2023/09/01 05:11:03;;;;;;;7.50;3.90;;;;;;;;;;5066643;28;20170;-63
2023/09/01 05:13:29;;;;;;;9.25;4.22;;;;;;;;;;5054113;28;20545;-63
2023/09/01 05:15:58;;;;;;;9.13;4.60;;;;;;;;;;5067119;28;20111;-63
2023/09/01 05:18:24;;;;;;;8.63;4.65;;;;;;;;;;5069486;28;20078;-60
2023/09/01 05:20:50;;;;;;;10.50;5.15;;;;;;;;;;5017176;28;20555;-63
2023/09/01 05:23:16;;;;;;;10.82;6.00;;;;;;;;;;5066525;28;20507;-60
2023/09/01 05:25:42;;;;;;;11.02;6.10;;;;;;;;;;5053632;28;20493;-64
2023/09/01 05:28:08;;;;;;;14.45;7.20;;;;;;;;;;5046536;28;20119;-62
2023/09/01 05:30:36;;;;;;;18.25;7.78;;;;;;;;;;5067182;28;20052;-61
2023/09/01 05:33:03;;;;;;;9.82;4.90;;;;;;;;;;5048363;28;20056;-65
2023/09/01 05:35:29;;;;;;;8.40;4.85;;;;;;;;;;5051802;28;20074;-64
2023/09/01 05:37:55;;;;;;;8.63;4.72;;;;;;;;;;5059297;28;20095;-62
2023/09/01 05:40:22;;;;;;;6.60;4.55;;;;;;;;;;5051643;28;20048;-62
2023/09/01 05:42:49;;;;;;;8.95;4.22;;;;;;;;;;5051643;28;20088;-63
2023/09/01 05:45:15;;;;;;;8.32;4.45;;;;;;;;;;5035914;28;20048;-62
2023/09/01 05:47:43;;;;;;;7.93;4.25;;;;;;;;;;5037172;28;20082;-62
2023/09/01 05:50:09;;;;;;;5.95;3.75;;;;;;;;;;5036618;28;20052;-63
2023/09/01 05:52:35;;;;;;;7.80;3.72;;;;;;;;;;5053068;28;20541;-66
2023/09/01 05:55:01;;;;;;;10.25;3.78;;;;;;;;;;5072175;28;20377;-64
2023/09/01 05:57:27;;;;;;;9.85;3.85;;;;;;;;;;5071895;28;20048;-62
2023/09/01 05:59:53;;;;;;;9.23;3.75;;;;;;;;;;5059686;28;20473;-61
2023/09/01 06:02:19;;;;;;;7.10;3.50;;;;;;;;;;5069738;28;20121;-61
2023/09/01 06:04:45;;;;;;;9.45;3.28;;;;;;;;;;5070625;28;20481;-61
2023/09/01 06:07:11;;;;;;;8.65;3.53;;;;;;;;;;5070394;28;20500;-61
2023/09/01 06:09:37;;;;;;;6.40;3.10;;;;;;;;;;5048544;28;20439;-61
2023/09/01 06:12:03;;;;;;;9.38;3.50;;;;;;;;;;5053521;28;20550;-63
2023/09/01 06:14:29;;;;;;;6.90;3.63;;;;;;;;;;5071382;28;20464;-61
2023/09/01 06:16:55;;;;;;;8.98;3.83;;;;;;;;;;5054185;28;20060;-61
2023/09/01 06:19:22;;;;;;;7.53;4.18;;;;;;;;;;5071332;28;20125;-61
2023/09/01 06:21:48;;;;;;;11.32;4.13;;;;;;;;;;5070089;28;20040;-61
2023/09/01 06:24:14;;;;;;;6.82;3.75;;;;;;;;;;5052167;28;20053;-61
2023/09/01 06:26:40;;;;;;;7.75;3.90;;;;;;;;;;5053412;28;20102;-60
2023/09/01 06:29:06;;;;;;;7.18;4.57;;;;;;;;;;5070021;28;20080;-61
2023/09/01 06:31:32;;;;;;;7.43;3.80;;;;;;;;;;5070097;28;20053;-61
2023/09/01 06:33:58;;;;;;;7.20;4.13;;;;;;;;;;5031858;28;20033;-61
2023/09/01 06:36:24;;;;;;;7.65;4.32;;;;;;;;;;5069254;28;20040;-62
2023/09/01 06:38:50;;;;;;;12.18;5.28;;;;;;;;;;5073065;28;20040;-60
2023/09/01 06:41:16;;;;;;;8.60;4.47;;;;;;;;;;5074224;28;20131;-62
2023/09/01 06:43:42;;;;;;;8.63;4.90;;;;;;;;;;5057698;28;20045;-60
2023/09/01 06:46:08;;;;;;;8.55;4.60;;;;;;;;;;5069076;28;20049;-60
2023/09/01 06:48:35;;;;;;;8.25;4.45;;;;;;;;;;5069328;28;20041;-61
2023/09/01 06:51:01;;;;;;;9.77;4.55;;;;;;;;;;5074933;28;20131;-60
2023/09/01 06:53:27;;;;;;;11.30;5.10;;;;;;;;;;5075289;28;20059;-60
2023/09/01 06:55:53;;;;;;;12.98;6.20;;;;;;;;;;5056782;28;20049;-60
2023/09/01 06:58:20;;;;;;;9.00;5.82;;;;;;;;;;5056707;28;20049;-59
2023/09/01 07:00:46;;;;;;;11.50;6.07;;;;;;;;;;5074944;28;20122;-60
2023/09/01 07:03:12;;;;;;;9.73;5.88;;;;;;;;;;5072707;28;20512;-60
2023/09/01 07:05:38;;;;;;;9.23;6.00;;;;;;;;;;5057706;28;20135;-60
2023/09/01 07:08:04;;;;;;;12.10;6.68;;;;;;;;;;5054594;28;20187;-61
2023/09/01 07:10:30;;;;;;;10.50;6.32;;;;;;;;;;5054292;28;20107;-60
2023/09/01 07:12:56;;;;;;;11.02;6.85;;;;;;;;;;5046964;28;20041;-60
2023/09/01 07:15:22;;;;;;;11.77;6.93;;;;;;;;;;5074282;28;20135;-60
2023/09/01 07:17:48;;;;;;;8.75;6.68;;;;;;;;;;5056316;28;20430;-60
2023/09/01 07:20:14;;;;;;;10.05;6.72;;;;;;;;;;5074165;28;20044;-60
2023/09/01 07:22:40;;;;;;;13.43;6.75;;;;;;;;;;5054874;28;20041;-61
2023/09/01 07:25:11;;;;;;;14.40;7.93;;;;;;;;;;5055949;28;20134;-60
2023/09/01 07:27:36;;;;;;;;;;;16.10;99.90;;;;;;5067035;28;20047;-60
2023/09/01 07:30:03;;;;;;;15.13;7.80;;;;;;;;;;5052841;28;19920;-62
2023/09/01 07:32:31;;;;;;;13.95;8.20;;;;;;;;;;5055136;28;20044;-60
2023/09/01 07:34:58;;;;;;;14.13;8.02;;;;;;;;;;5074392;28;20052;-60
2023/09/01 07:37:25;;;;;;;13.93;8.00;;;;;;;;;;5073730;28;20120;-60
2023/09/01 07:39:53;;;;;;;14.43;8.07;;;;;;;;;;5064113;28;20044;-60
2023/09/01 07:42:19;;;;;;;11.18;8.35;;;;;;;;;;5057398;28;20044;-61
2023/09/01 07:44:46;;;;;;;11.80;7.78;;;;;;;;;;5053644;28;20098;-60
2023/09/01 07:47:12;;;;;;;13.48;8.20;;;;;;;;;;5055193;28;20049;-60
2023/09/01 07:49:38;;;;;;;13.25;7.78;;;;;;;;;;5037878;28;20484;-61
2023/09/01 07:52:04;;;;;;;11.57;7.40;;;;;;;;;;5074022;28;20044;-60
2023/09/01 07:54:30;;;;;;;12.85;7.97;;;;;;;;;;5073916;28;20094;-60
2023/09/01 07:56:56;;;;;;;19.50;9.15;;;;;;;;;;5073166;28;20051;-60
2023/09/01 07:59:23;;;;;;;13.90;9.88;;;;;;;;;;5073672;28;20049;-60
2023/09/01 08:01:49;;;;;;;16.65;9.65;;;;;;;;;;5073593;28;20131;-60
2023/09/01 08:04:15;;;;;;;19.48;9.82;;;;;;;;;;5037133;28;20053;-61
2023/09/01 08:06:43;;;;;;;13.52;9.65;;;;;;;;;;5073535;28;20071;-59
2023/09/01 08:09:09;;;;;;;13.18;10.13;;;;;;;;;;5036897;28;20084;-60
2023/09/01 08:11:35;;;;;;;15.88;11.38;;;;;;;;;;5065474;28;20044;-59
2023/09/01 08:14:01;;;;;;;17.08;10.82;;;;;;;;;;5073591;28;20101;-61
2023/09/01 08:16:27;;;;;;;14.80;11.10;;;;;;;;;;5072010;28;20052;-59
2023/09/01 08:18:58;;;;;;;18.52;11.93;;;;;;;;;;5050821;28;20071;-59
2023/09/01 08:21:24;;;;;;;17.23;12.23;;;;;;;;;;5038768;28;20482;-59
2023/09/01 08:23:51;;;;;;;16.77;12.85;;;;;;;;;;5052740;28;20382;-59
2023/09/01 08:26:17;;;;;;;19.08;12.25;;;;;;;;;;5052694;28;20067;-60
2023/09/01 08:28:43;;;;;;;20.60;12.75;;;;;;;;;;5050059;28;20047;-59
2023/09/01 08:31:09;;;;;;;18.88;12.30;;;;;;;;;;5036075;28;20171;-59
2023/09/01 08:33:36;;;;;;;20.25;13.23;;;;;;;;;;5033260;28;20036;-59
2023/09/01 08:36:03;;;;;;;21.73;13.20;;;;;;;;;;5068585;28;20059;-63
2023/09/01 08:38:29;;;;;;;20.20;12.32;;;;;;;;;;5062946;28;20045;-60
2023/09/01 08:41:05;;;;;;;21.17;11.95;;;;;;;;;;5051763;28;20598;-59
2023/09/01 08:43:39;;;;;;;18.65;11.45;;;;;;;;;;5049177;28;20051;-60
2023/09/01 08:46:05;;;;;;;19.35;12.23;;;;;;;;;;5032216;28;20049;-59
2023/09/01 08:48:35;;;;;;;14.98;11.15;;;;;;;;;;5048840;28;20055;-59
2023/09/01 08:51:03;;;;;;;19.40;12.23;;;;;;;;;;5029238;28;20451;-60
2023/09/01 08:53:29;;;;;;;17.27;11.93;;;;;;;;;;5052287;28;20131;-59
2023/09/01 08:55:55;;;;;;;17.67;12.18;;;;;;;;;;5033962;28;20036;-62
2023/09/01 08:58:23;;;;;;;18.85;11.65;;;;;;;;;;5063079;28;20242;-59
2023/09/01 09:00:49;;;;;;;16.63;11.27;;;;;;;;;;5035408;28;20041;-59
2023/09/01 09:03:17;;;;;;;18.95;12.15;;;;;;;;;;5027941;28;20132;-59
2023/09/01 09:05:44;;;;;;;17.83;11.40;;;18.60;99.90;;;;;;5044678;28;20084;-59
2023/09/01 09:08:11;;;;;;;19.55;11.52;;;;;;;;;;5051444;28;20053;-59
2023/09/01 09:10:41;;;;;;;18.02;10.75;;;;;;;;;;5048103;28;20048;-59
2023/09/01 09:13:26;;;;;;;17.02;11.13;;;;;;;;;;5070138;28;20037;-59
2023/09/01 09:16:04;;;;;;;18.13;10.85;;;;;;;;;;5071699;28;20124;-59
2023/09/01 09:18:30;;;;;;;20.85;10.90;;;;;;;;;;5065702;28;20037;-59
2023/09/01 09:20:57;;;;;;;20.40;10.80;;;;;;;;;;5068045;28;20051;-59
2023/09/01 09:23:41;;;;;;;21.38;11.10;;;;;;;;;;5051868;28;20127;-59
2023/09/01 09:26:07;;;;;;;15.13;10.15;;;;;;;;;;5053943;28;20052;-63
2023/09/01 09:28:33;;;;;;;20.85;10.80;;;;;;;;;;5072133;28;20049;-63
2023/09/01 09:31:00;;;;;;;19.23;11.48;;;;;;;;;;5043888;28;20451;-65
2023/09/01 09:33:28;;;;;;;15.35;10.55;;;19.30;99.90;;;;;;5067104;28;20090;-66
2023/09/01 09:35:55;;;;;;;20.10;11.15;;;;;;;;;;5052736;28;20094;-66
2023/09/01 09:38:21;;;;;;;19.05;10.95;;;;;;;;;;5069947;28;20044;-66
2023/09/01 09:40:58;;;;;;;20.98;11.25;;;;;;;;;;5071974;28;20440;-65
2023/09/01 09:43:24;;;;;;;17.83;10.35;;;;;;;;;;5070438;28;20056;-66
2023/09/01 09:45:52;;;;;;;17.05;10.45;;;;;;;;;;5058630;28;20480;-65
2023/09/01 09:48:19;;;;;;;18.95;10.50;;;;;;;;;;5066668;28;20040;-66
2023/09/01 09:50:47;;;;;;;16.15;10.35;;;;;;;;;;5070857;28;20056;-66
2023/09/01 09:53:16;;;;;;;14.00;9.95;;;;;;;;;;5037445;28;20123;-66
2023/09/01 09:55:42;;;;;;;23.07;10.87;;;;;;;;;;5054248;28;20106;-66
2023/09/01 09:58:09;;;;;;;18.73;9.63;;;19.80;99.90;;;;;;5069125;28;20037;-64
2023/09/01 10:00:45;;;;;;;20.38;9.77;;;;;;;;;;5051971;28;20455;-65
2023/09/01 10:03:11;;;;;;;17.48;10.27;;;;;;;;;;5053763;28;20053;-64
2023/09/01 10:05:38;;;;;;;16.63;10.65;;;19.20;99.90;;;;;;5069811;28;20040;-64
2023/09/01 10:08:06;;;;;;;25.00;10.98;;;19.40;99.90;;;;;;5060460;28;20132;-63
2023/09/01 10:10:38;;;;;;;22.42;11.30;;;;;;;;;;5036492;28;20468;-63
2023/09/01 10:13:07;;;;;;;17.92;10.18;;;19.40;99.90;;;;;;5065587;28;20124;-65
2023/09/01 10:15:34;;;;;;;20.23;10.35;;;;;;;;;;5052592;28;20036;-66
2023/09/01 10:18:08;;;;;;;16.20;9.57;;;;;;;;;;5061948;28;20048;-65
2023/09/01 10:20:35;;;;;;;15.40;9.20;;;;;;;;;;5033010;28;20536;-65
2023/09/01 10:23:02;;;;;;;18.08;10.35;;;;;;;;;;5066110;28;20331;-65
2023/09/01 10:25:29;;;;;;;18.50;10.13;;;;;;;;;;5071636;28;20193;-65
2023/09/01 10:28:15;;;;;;;20.23;10.20;;;;;;;;;;5071479;28;20074;-65
2023/09/01 10:30:45;;;;;;;13.45;9.98;;;19.80;99.90;;;;;;5070241;28;20124;-65
2023/09/01 10:33:12;;;;;;;16.40;9.48;;;;;;;;;;5036993;28;20044;-65
2023/09/01 10:35:57;;;;;;;17.13;9.45;;;20.00;99.90;;;;;;5070493;28;20052;-65
2023/09/01 10:38:37;;;;;;;14.55;7.80;;;20.20;99.90;;;;;;5070672;28;20047;-65
2023/09/01 10:41:03;;;;;;;11.75;7.03;;;;;;;;;;5067980;28;20048;-65
2023/09/01 10:43:37;;;;;;;13.32;8.20;;;20.50;99.90;;;;;;5070852;28;20392;-65
2023/09/01 10:46:12;;;;;;;18.60;8.90;;;20.50;99.90;;;;;;5070293;28;20040;-65
2023/09/01 10:48:47;;;;;;;15.93;8.00;;;;;;;;;;5071117;28;20094;-67
2023/09/01 10:51:28;;;;;;;15.88;7.20;;;20.80;99.90;;;;;;5066266;28;20041;-66
2023/09/01 10:54:00;;;;;;;17.95;7.97;;;;;;;;;;5061495;28;20087;-64
2023/09/01 10:56:26;;;;;;;16.88;8.20;;;21.00;99.90;;;;;;5053137;28;20115;-65
2023/09/01 10:58:54;;;;;;;11.93;7.20;;;;;;;;;;5070272;28;20145;-66
2023/09/01 11:01:27;;;;;;;14.13;8.18;;;21.10;99.90;;;;;;5051160;28;20064;-65
2023/09/01 11:03:53;;;;;;;14.70;8.13;;;;;;;;;;5067686;28;20083;-66
2023/09/01 11:06:20;;;;;;;15.00;8.48;;;;;;;;;;5061493;28;20044;-66
2023/09/01 11:09:03;;;;;;;14.27;6.47;;;;;;;;;;5069780;28;20069;-66
2023/09/01 11:11:29;;;;;;;11.68;5.68;;;;;;;;;;5069583;28;20416;-65
2023/09/01 11:14:02;;;;;;;12.63;5.10;;;21.30;99.90;;;;;;5062130;28;20044;-65
2023/09/01 11:16:28;;;;;;;10.75;4.55;;;;;;;;;;5068690;28;20048;-66
2023/09/01 11:19:01;;;;;;;12.05;3.75;;;21.40;99.90;;;;;;5067251;28;20128;-66
2023/09/01 11:21:27;;;;;;;11.30;3.40;;;;;;;;;;5064313;28;20498;-66
2023/09/01 11:23:57;;;;;;;11.65;3.58;;;21.60;99.90;;;;;;5070925;28;20052;-66
2023/09/01 11:26:23;;;;;;;11.18;4.65;;;21.90;99.90;;;;;;5073888;28;20079;-66
2023/09/01 11:28:49;;;;;;;14.25;3.63;;;;;;;;;;5056428;28;20078;-66
2023/09/01 11:31:15;;;;;;;10.15;4.35;;;;;;;;;;5073824;28;20044;-65
2023/09/01 11:33:42;;;;;;;9.60;2.85;;;;;;;;;;5055705;28;20056;-66
2023/09/01 11:36:12;;;;;;;7.55;3.13;;;22.00;99.90;;;;;;5073930;28;20404;-66
2023/09/01 11:38:40;;;;;;;8.75;3.20;;;21.90;99.90;;;;;;5074230;28;20084;-66
2023/09/01 11:41:11;;;;;;;7.53;3.10;;;21.90;99.90;;;;;;5070984;28;20049;-66
2023/09/01 11:43:38;;;;;;;9.98;3.75;;;;;;;;;;5073717;28;20492;-66
2023/09/01 11:46:04;;;;;;;7.22;3.20;;;;;;;;;;5072181;28;20055;-63
2023/09/01 11:48:30;;;;;;;10.80;3.85;;;;;;;;;;5074069;28;20123;-66
2023/09/01 11:50:58;;;;;;;8.75;3.90;;;22.20;99.90;;;;;;5073924;28;20119;-66
2023/09/01 11:53:32;;;;;;;9.13;3.70;;;22.20;99.90;;;;;;5073237;28;20442;-67
2023/09/01 11:55:59;;;;;;;9.30;3.60;;;;;;;;;;5073291;28;20097;-66
2023/09/01 11:58:45;;;;;;;7.20;3.38;;;22.70;99.90;;;;;;5055912;28;20422;-66
2023/09/01 12:01:16;;;;;;;9.38;3.67;;;22.40;99.90;;;;;;5072697;28;20516;-66
2023/09/01 12:03:48;;;;;;;9.98;4.45;;;22.80;99.90;;;;;;5037924;28;20056;-66
2023/09/01 12:06:23;;;;;;;56.22;10.45;;;22.80;99.90;;;;;;5072932;28;20052;-68
2023/09/01 12:08:51;;;;;;;20.13;5.03;;;22.90;99.90;;;;;;5073276;28;20427;-66
2023/09/01 12:11:17;;;;;;;9.48;3.88;;;22.50;99.90;;;;;;5073180;28;20098;-67
2023/09/01 12:13:43;;;;;;;9.15;3.90;;;;;;;;;;5055747;28;20080;-64
2023/09/01 12:16:23;;;;;;;7.97;3.50;;;22.40;99.90;;;;;;5071134;28;20469;-66
2023/09/01 12:18:49;;;;;;;10.23;4.15;;;;;;;;;;5053015;28;20079;-67
2023/09/01 12:21:15;;;;;;;7.40;3.60;;;;;;;;;;5053217;28;20131;-67
2023/09/01 12:23:43;;;;;;;8.18;3.25;;;22.10;99.90;;;;;;5055230;28;20094;-65
2023/09/01 12:26:10;;;;;;;8.40;3.25;;;22.20;99.90;;;;;;5070981;28;20032;-63
2023/09/01 12:28:37;;;;;;;7.65;2.70;;;21.90;99.90;;;;;;5072382;28;20094;-67
2023/09/01 12:31:05;;;;;;;7.63;2.60;;;21.60;99.90;;;;;;5071899;28;20546;-64
2023/09/01 12:33:31;;;;;;;6.95;2.00;;;;;;;;;;5036944;28;20048;-64
2023/09/01 12:35:58;;;;;;;6.38;2.38;;;21.90;99.90;;;;;;5072069;28;20438;-68
2023/09/01 12:38:23;;;;;;;4.72;2.58;;;22.00;99.90;;;;;;5072901;28;20045;-67
2023/09/01 12:40:50;;;;;;;6.18;2.50;;;;;;;;;;5053402;28;20070;-70
2023/09/01 12:43:16;;;;;;;7.35;2.70;;;22.20;99.90;;;;;;5071251;28;20074;-66
2023/09/01 12:45:42;;;;;;;5.70;2.15;;;;;;;;;;5055046;28;20182;-71
2023/09/01 12:48:08;;;;;;;5.88;2.15;;;;;;;;;;5072589;28;20048;-68
2023/09/01 12:50:34;;;;;;;9.00;2.70;;;;;;;;;;5066683;28;20036;-68
2023/09/01 12:53:02;;;;;;;7.63;2.17;;;22.80;99.90;;;;;;5068906;28;20058;-68
2023/09/01 12:55:29;;;;;;;75.93;17.73;;;;;;;;;;5073957;28;20436;-70
2023/09/01 12:57:55;;;;;;;6.18;2.10;;;22.90;99.90;;;;;;5066643;28;20052;-69
2023/09/01 13:00:22;;;;;;;6.43;2.85;;;22.90;99.90;;;;;;5053660;28;20523;-67
2023/09/01 13:02:53;;;;;;;7.05;2.78;;;22.90;99.90;;;;;;5070043;28;20072;-69
2023/09/01 13:05:21;;;;;;;8.23;2.90;;;22.80;99.90;;;;;;5072624;28;20056;-68
2023/09/01 13:07:48;;;;;;;5.05;2.30;;;22.90;99.90;;;;;;5033904;28;20498;-65
2023/09/01 13:10:15;;;;;;;6.47;2.40;;;23.20;99.90;;;;;;5047972;28;20139;-71
2023/09/01 13:12:42;;;;;;;5.63;2.97;;;;;;;;;;5014651;28;20144;-68
2023/09/01 13:15:08;;;;;;;7.30;2.50;;;23.20;99.90;;;;;;5030020;28;20037;-67
2023/09/01 13:17:34;;;;;;;7.63;3.40;;;23.30;99.90;;;;;;5024582;28;20124;-67
2023/09/01 13:20:01;;;;;;;8.35;2.97;;;23.20;99.90;;;;;;5029500;28;20136;-67
2023/09/01 13:22:27;;;;;;;7.25;2.45;;;;;;;;;;5030710;28;20072;-67
2023/09/01 13:24:55;;;;;;;8.10;2.45;;;;;;;;;;5030328;28;20045;-67
2023/09/01 13:27:21;;;;;;;5.90;2.70;;;;;;;;;;5007363;28;20054;-67
2023/09/01 13:29:47;;;;;;;7.65;2.88;;;23.00;99.90;;;;;;5030823;28;20049;-67
2023/09/01 13:32:12;;;;;;;6.97;2.58;;;22.90;99.90;;;;;;5029338;28;20060;-67
2023/09/01 13:34:38;;;;;;;11.82;3.45;;;22.90;99.90;;;;;;5029286;28;20069;-67
2023/09/01 13:37:12;;;;;;;6.53;2.60;;;22.80;99.90;;;;;;5029693;28;20087;-67
2023/09/01 13:39:41;;;;;;;7.97;3.60;;;22.90;99.90;;;;;;5029488;28;20425;-68
2023/09/01 13:42:07;;;;;;;8.75;3.10;;;22.70;99.90;;;;;;5028695;28;20076;-67
2023/09/01 13:44:33;;;;;;;5.38;2.63;;;22.60;99.90;;;;;;5019786;28;20046;-68
2023/09/01 13:47:00;;;;;;;8.57;2.95;;;;;;;;;;5025012;28;20048;-68
2023/09/01 13:49:26;;;;;;;7.50;3.08;;;;;;;;;;5029350;28;20049;-68
2023/09/01 13:51:52;;;;;;;6.53;2.55;;;;;;;;;;5020901;28;20104;-68
2023/09/01 13:54:18;;;;;;;7.45;2.75;;;22.50;99.90;;;;;;5027958;28;20405;-67
2023/09/01 13:56:44;;;;;;;6.60;2.80;;;22.70;99.90;;;;;;5028829;28;20052;-68
2023/09/01 13:59:10;;;;;;;6.93;2.20;;;22.90;99.90;;;;;;5029763;28;20053;-67
2023/09/01 14:01:37;;;;;;;27.10;4.00;;;23.00;99.90;;;;;;5024813;28;20127;-72
2023/09/01 14:04:04;;;;;;;6.75;2.70;;;;;;;;;;5029246;28;20073;-65
2023/09/01 14:06:30;;;;;;;8.35;2.45;;;;;;;;;;5011742;28;20493;-65
2023/09/01 14:08:56;;;;;;;6.88;2.50;;;;;;;;;;5052951;28;20049;-67
2023/09/01 14:11:24;;;;;;;8.27;2.47;;;23.30;99.90;;;;;;5070842;28;20127;-68
2023/09/01 14:13:50;;;;;;;6.88;2.75;;;23.30;99.90;;;;;;5066946;28;20037;-67
2023/09/01 14:16:16;;;;;;;9.40;3.10;;;;;;;;;;5067593;28;20078;-68